createdAt,value
2023-11-17T00:00:00.673Z,100.00
2023-11-17T00:02:27.403Z,100.00
2023-11-17T00:04:53.970Z,100.00
2023-11-17T00:07:20.546Z,100.00
2023-11-17T00:09:47.254Z,100.00
2023-11-17T00:12:14.048Z,100.00
2023-11-17T00:14:40.641Z,100.00
2023-11-17T00:17:08.043Z,100.00
2023-11-17T00:19:34.589Z,100.00
2023-11-17T00:22:01.095Z,100.00
2023-11-17T00:24:28.783Z,100.00
2023-11-17T00:26:55.266Z,100.00
2023-11-17T00:29:21.791Z,100.00
2023-11-17T00:31:48.266Z,100.00
2023-11-17T00:34:16.004Z,100.00
2023-11-17T00:36:48.320Z,100.00
2023-11-17T00:39:18.278Z,100.00
2023-11-17T00:41:45.258Z,100.00
2023-11-17T00:44:12.891Z,100.00
2023-11-17T00:46:39.635Z,100.00
2023-11-17T00:49:06.331Z,100.00
2023-11-17T00:51:34.481Z,100.00
2023-11-17T00:54:01.567Z,100.00
2023-11-17T00:56:28.291Z,100.00
2023-11-17T00:58:54.877Z,100.00
2023-11-17T01:01:24.026Z,100.00
2023-11-17T01:03:50.773Z,100.00
2023-11-17T01:06:17.349Z,100.00
2023-11-17T01:08:43.793Z,100.00
2023-11-17T01:11:13.188Z,100.00
2023-11-17T01:13:40.599Z,100.00
2023-11-17T01:16:07.418Z,100.00
2023-11-17T01:18:33.960Z,100.00
2023-11-17T01:21:00.437Z,100.00
2023-11-17T01:23:28.319Z,100.00
2023-11-17T01:25:55.328Z,100.00
2023-11-17T01:28:21.822Z,100.00
2023-11-17T01:30:48.369Z,100.00
2023-11-17T01:33:14.833Z,100.00
2023-11-17T01:35:41.271Z,100.00
2023-11-17T01:38:08.527Z,100.00
2023-11-17T01:40:35.002Z,100.00
2023-11-17T01:43:12.481Z,100.00
2023-11-17T01:45:40.736Z,100.00
2023-11-17T01:48:08.653Z,100.00
2023-11-17T01:50:35.702Z,100.00
2023-11-17T01:53:02.343Z,100.00
2023-11-17T01:55:28.885Z,100.00
2023-11-17T01:57:56.587Z,100.00
2023-11-17T02:00:23.134Z,100.00
2023-11-17T02:02:52.787Z,100.00
2023-11-17T02:05:22.374Z,100.00
2023-11-17T02:08:01.001Z,100.00
2023-11-17T02:10:56.026Z,100.00
2023-11-17T02:13:27.427Z,100.00
2023-11-17T02:15:56.127Z,100.00
2023-11-17T02:18:24.327Z,100.00
2023-11-17T02:20:54.195Z,100.00
2023-11-17T02:23:25.978Z,100.00
2023-11-17T02:26:32.953Z,100.00
2023-11-17T02:29:08.090Z,100.00
2023-11-17T02:31:37.235Z,100.00
2023-11-17T02:34:07.813Z,100.00
2023-11-17T02:36:34.612Z,100.00
2023-11-17T02:39:15.372Z,100.00
2023-11-17T02:41:57.956Z,100.00
2023-11-17T02:44:29.619Z,100.00
2023-11-17T02:47:00.624Z,100.00
2023-11-17T02:49:35.608Z,100.00
2023-11-17T02:52:10.283Z,100.00
2023-11-17T02:54:38.935Z,100.00
2023-11-17T02:57:06.422Z,100.00
2023-11-17T02:59:36.795Z,100.00
2023-11-17T03:02:04.214Z,100.00
2023-11-17T03:04:31.428Z,100.00
2023-11-17T03:07:02.780Z,100.00
2023-11-17T03:09:31.361Z,100.00
2023-11-17T03:12:00.650Z,100.00
2023-11-17T03:14:28.320Z,100.00
2023-11-17T03:17:01.561Z,100.00
2023-11-17T03:19:29.146Z,100.00
2023-11-17T03:21:55.886Z,100.00
2023-11-17T03:24:24.846Z,100.00
2023-11-17T03:26:53.626Z,100.00
2023-11-17T03:29:22.158Z,100.00
2023-11-17T03:31:56.093Z,100.00
2023-11-17T03:34:33.147Z,100.00
2023-11-17T03:37:02.834Z,100.00
2023-11-17T03:39:30.415Z,100.00
2023-11-17T03:41:58.203Z,100.00
2023-11-17T03:44:29.136Z,100.00
2023-11-17T03:46:56.184Z,100.00
2023-11-17T03:49:23.082Z,100.00
2023-11-17T03:51:50.584Z,100.00
2023-11-17T03:54:17.931Z,100.00
2023-11-17T03:56:46.098Z,100.00
2023-11-17T03:59:14.564Z,100.00
2023-11-17T04:01:44.492Z,100.00
2023-11-17T04:04:11.208Z,100.00
2023-11-17T04:06:37.771Z,100.00
2023-11-17T04:09:17.243Z,100.00
2023-11-17T04:11:44.444Z,100.00
2023-11-17T04:14:10.945Z,100.00
2023-11-17T04:16:38.492Z,100.00
2023-11-17T04:19:05.529Z,100.00
2023-11-17T04:21:32.405Z,100.00
2023-11-17T04:23:58.821Z,100.00
2023-11-17T04:26:25.286Z,100.00
2023-11-17T04:28:51.783Z,100.00
2023-11-17T04:31:19.729Z,100.00
2023-11-17T04:33:46.269Z,100.00
2023-11-17T04:36:12.816Z,100.00
2023-11-17T04:38:39.560Z,100.00
2023-11-17T04:41:06.122Z,100.00
2023-11-17T04:43:32.823Z,100.00
2023-11-17T04:45:59.417Z,100.00
2023-11-17T04:48:26.017Z,100.00
2023-11-17T04:50:53.179Z,100.00
2023-11-17T04:53:19.658Z,100.00
2023-11-17T04:55:48.799Z,100.00
2023-11-17T04:58:15.523Z,100.00
2023-11-17T05:00:42.814Z,100.00
2023-11-17T05:03:09.497Z,100.00
2023-11-17T05:05:36.017Z,100.00
2023-11-17T05:08:02.467Z,100.00
2023-11-17T05:10:29.082Z,100.00
2023-11-17T05:12:55.565Z,100.00
2023-11-17T05:15:22.238Z,100.00
2023-11-17T05:17:49.999Z,100.00
2023-11-17T05:20:20.927Z,100.00
2023-11-17T05:22:48.993Z,100.00
2023-11-17T05:25:17.015Z,100.00
2023-11-17T05:27:47.098Z,100.00
2023-11-17T05:30:15.160Z,100.00
2023-11-17T05:32:41.738Z,100.00
2023-11-17T05:35:08.911Z,100.00
2023-11-17T05:37:35.947Z,100.00
2023-11-17T05:40:02.568Z,100.00
2023-11-17T05:42:31.737Z,100.00
2023-11-17T05:44:58.293Z,100.00
2023-11-17T05:47:24.860Z,100.00
2023-11-17T05:49:53.353Z,100.00
2023-11-17T05:52:20.066Z,100.00
2023-11-17T05:54:47.578Z,100.00
2023-11-17T05:57:18.737Z,100.00
2023-11-17T05:59:47.185Z,100.00
2023-11-17T06:02:15.781Z,100.00
2023-11-17T06:04:43.294Z,100.00
2023-11-17T06:07:10.291Z,100.00
2023-11-17T06:09:37.900Z,100.00
2023-11-17T06:12:05.120Z,100.00
2023-11-17T06:14:31.858Z,100.00
2023-11-17T06:17:05.750Z,100.00
2023-11-17T06:19:34.383Z,100.00
2023-11-17T06:22:00.997Z,100.00
2023-11-17T06:24:27.555Z,100.00
2023-11-17T06:26:54.434Z,100.00
2023-11-17T06:29:23.189Z,100.00
2023-11-17T06:31:50.798Z,100.00
2023-11-17T06:34:17.503Z,100.00
2023-11-17T06:36:45.521Z,100.00
2023-11-17T06:39:15.714Z,100.00
2023-11-17T06:41:50.613Z,100.00
2023-11-17T06:44:18.877Z,100.00
2023-11-17T06:46:46.821Z,100.00
2023-11-17T06:49:16.001Z,100.00
2023-11-17T06:51:44.455Z,100.00
2023-11-17T06:54:13.274Z,100.00
2023-11-17T06:56:42.129Z,100.00
2023-11-17T06:59:12.778Z,100.00
2023-11-17T07:01:40.323Z,100.00
2023-11-17T07:04:08.974Z,100.00
2023-11-17T07:06:36.042Z,100.00
2023-11-17T07:09:03.055Z,100.00
2023-11-17T07:11:33.466Z,100.00
2023-11-17T07:14:08.889Z,100.00
2023-11-17T07:16:43.747Z,100.00
2023-11-17T07:19:19.135Z,100.00
2023-11-17T07:21:47.431Z,100.00
2023-11-17T07:24:17.733Z,100.00
2023-11-17T07:26:48.875Z,100.00
2023-11-17T07:29:17.229Z,100.00
2023-11-17T07:31:47.773Z,100.00
2023-11-17T07:34:18.520Z,100.00
2023-11-17T07:36:46.629Z,100.00
2023-11-17T07:39:20.347Z,100.00
2023-11-17T07:41:47.606Z,100.00
2023-11-17T07:44:14.193Z,100.00
2023-11-17T07:46:41.323Z,100.00
2023-11-17T07:49:11.581Z,100.00
2023-11-17T07:51:38.360Z,100.00
2023-11-17T07:54:05.666Z,100.00
2023-11-17T07:56:32.252Z,100.00
2023-11-17T07:59:04.512Z,100.00
2023-11-17T08:01:31.259Z,100.00
2023-11-17T08:03:57.880Z,100.00
2023-11-17T08:06:25.223Z,100.00
2023-11-17T08:08:52.038Z,100.00
2023-11-17T08:11:18.647Z,100.00
2023-11-17T08:13:45.106Z,100.00
2023-11-17T08:16:11.917Z,100.00
2023-11-17T08:18:39.388Z,100.00
2023-11-17T08:21:07.846Z,100.00
2023-11-17T08:23:34.573Z,100.00
2023-11-17T08:26:01.707Z,100.00
2023-11-17T08:28:29.220Z,100.00
2023-11-17T08:30:59.503Z,100.00
2023-11-17T08:33:26.334Z,100.00
2023-11-17T08:35:53.402Z,100.00
2023-11-17T08:38:22.020Z,100.00
2023-11-17T08:40:48.925Z,100.00
2023-11-17T08:43:19.751Z,100.00
2023-11-17T08:45:48.891Z,100.00
2023-11-17T08:48:15.823Z,100.00
2023-11-17T08:50:43.030Z,100.00
2023-11-17T08:53:10.874Z,100.00
2023-11-17T08:55:37.527Z,100.00
2023-11-17T08:58:04.284Z,100.00
2023-11-17T09:00:31.889Z,100.00
2023-11-17T09:02:59.519Z,100.00
2023-11-17T09:05:26.526Z,100.00
2023-11-17T09:07:53.252Z,100.00
2023-11-17T09:10:22.356Z,100.00
2023-11-17T09:12:50.290Z,100.00
2023-11-17T09:15:19.758Z,100.00
2023-11-17T09:17:53.222Z,100.00
2023-11-17T09:20:22.628Z,100.00
2023-11-17T09:22:51.056Z,100.00
2023-11-17T09:25:19.966Z,100.00
2023-11-17T09:27:55.871Z,100.00
2023-11-17T09:30:22.809Z,100.00
2023-11-17T09:32:51.017Z,100.00
2023-11-17T09:35:18.657Z,100.00
2023-11-17T09:38:00.375Z,100.00
2023-11-17T09:40:34.624Z,100.00
2023-11-17T09:43:23.718Z,100.00
2023-11-17T09:45:55.350Z,100.00
2023-11-17T09:48:25.027Z,100.00
2023-11-17T09:50:52.978Z,100.00
2023-11-17T09:53:24.201Z,100.00
2023-11-17T09:55:53.915Z,100.00
2023-11-17T09:58:22.061Z,100.00
2023-11-17T10:00:49.548Z,100.00
2023-11-17T10:03:20.509Z,100.00
2023-11-17T10:05:49.007Z,100.00
2023-11-17T10:08:17.534Z,100.00
2023-11-17T10:10:46.757Z,100.00
2023-11-17T10:13:15.332Z,100.00
2023-11-17T10:15:45.783Z,100.00
2023-11-17T10:18:17.037Z,100.00
2023-11-17T10:20:44.474Z,100.00
2023-11-17T10:23:11.669Z,99.14
2023-11-17T10:25:39.791Z,99.22
2023-11-17T10:28:06.492Z,99.41
2023-11-17T10:30:42.620Z,97.15
2023-11-17T10:33:14.843Z,95.36
2023-11-17T10:36:13.599Z,92.64
2023-11-17T10:38:42.063Z,90.70
2023-11-17T10:41:13.190Z,90.17
2023-11-17T10:43:53.868Z,89.03
2023-11-17T10:46:28.431Z,86.40
2023-11-17T10:49:01.880Z,86.20
2023-11-17T10:51:29.347Z,88.66
2023-11-17T10:54:15.140Z,87.54
2023-11-17T10:56:43.237Z,89.92
2023-11-17T10:59:10.804Z,91.28
2023-11-17T11:01:38.304Z,90.98
2023-11-17T11:04:16.245Z,88.84
2023-11-17T11:06:46.578Z,86.77
2023-11-17T11:09:19.663Z,81.58
2023-11-17T11:11:52.311Z,74.55
2023-11-17T11:14:21.382Z,68.89
2023-11-17T11:16:48.899Z,69.60
2023-11-17T11:19:24.066Z,66.60
2023-11-17T11:22:02.609Z,66.06
2023-11-17T11:24:39.497Z,62.23
2023-11-17T11:27:08.168Z,56.78
2023-11-17T11:29:39.784Z,55.39
2023-11-17T11:32:07.457Z,55.13
2023-11-17T11:34:36.053Z,48.75
2023-11-17T11:37:04.529Z,51.05
2023-11-17T11:39:32.528Z,49.79
2023-11-17T11:42:01.499Z,50.49
2023-11-17T11:44:28.299Z,48.28
2023-11-17T11:46:58.987Z,42.89
2023-11-17T11:49:26.080Z,44.53
2023-11-17T11:51:58.813Z,42.13
2023-11-17T11:54:25.522Z,43.46
2023-11-17T11:56:52.138Z,41.88
2023-11-17T11:59:18.642Z,42.95
2023-11-17T12:01:49.164Z,42.06
2023-11-17T12:04:15.971Z,40.71
2023-11-17T12:06:47.204Z,39.60
2023-11-17T12:09:21.761Z,40.76
2023-11-17T12:11:51.093Z,41.07
2023-11-17T12:14:45.362Z,39.75
2023-11-17T12:17:12.971Z,38.08
2023-11-17T12:19:39.581Z,37.90
2023-11-17T12:22:06.289Z,38.85
2023-11-17T12:24:36.722Z,39.11
2023-11-17T12:27:06.070Z,37.17
2023-11-17T12:29:34.088Z,38.29
2023-11-17T12:32:04.600Z,38.78
2023-11-17T12:34:31.671Z,38.37
2023-11-17T12:37:01.636Z,38.86
2023-11-17T12:39:42.441Z,38.94
2023-11-17T12:42:16.870Z,39.19
2023-11-17T12:44:43.533Z,38.65
2023-11-17T12:47:21.828Z,38.64
2023-11-17T12:49:55.853Z,37.74
2023-11-17T12:52:23.636Z,37.70
2023-11-17T12:55:10.715Z,33.18
2023-11-17T12:57:38.517Z,37.12
2023-11-17T13:00:17.326Z,36.44
2023-11-17T13:02:44.543Z,36.03
2023-11-17T13:05:13.167Z,36.49
2023-11-17T13:07:40.488Z,36.40
2023-11-17T13:10:12.297Z,36.03
2023-11-17T13:12:40.230Z,34.37
2023-11-17T13:15:10.458Z,34.84
2023-11-17T13:17:37.660Z,35.56
2023-11-17T13:20:14.672Z,36.00
2023-11-17T13:22:45.364Z,35.61
2023-11-17T13:25:13.090Z,36.29
2023-11-17T13:27:40.783Z,37.32
2023-11-17T13:30:11.273Z,37.75
2023-11-17T13:33:04.117Z,36.01
2023-11-17T13:35:31.721Z,37.56
2023-11-17T13:38:05.412Z,35.99
2023-11-17T13:40:34.584Z,35.81
2023-11-17T13:43:09.961Z,36.10
2023-11-17T13:45:39.448Z,36.33
2023-11-17T13:48:09.385Z,35.87
2023-11-17T13:50:36.484Z,35.67
2023-11-17T13:53:03.713Z,35.93
2023-11-17T13:55:30.259Z,37.30
2023-11-17T13:57:57.453Z,36.53
2023-11-17T14:00:27.192Z,35.36
2023-11-17T14:02:54.430Z,35.61
2023-11-17T14:05:21.157Z,35.96
2023-11-17T14:07:49.145Z,35.26
2023-11-17T14:10:18.235Z,34.79
2023-11-17T14:12:47.267Z,35.69
2023-11-17T14:15:15.073Z,35.22
2023-11-17T14:17:43.247Z,34.23
2023-11-17T14:20:17.003Z,35.11
2023-11-17T14:22:43.713Z,36.20
2023-11-17T14:25:11.968Z,34.91
2023-11-17T14:27:41.977Z,35.88
2023-11-17T14:30:09.300Z,36.49
2023-11-17T14:32:36.071Z,37.35
2023-11-17T14:35:02.757Z,37.86
2023-11-17T14:37:30.061Z,37.56
2023-11-17T14:39:56.814Z,37.49
2023-11-17T14:42:23.537Z,38.05
2023-11-17T14:44:50.441Z,38.36
2023-11-17T14:47:17.755Z,38.19
2023-11-17T14:49:44.572Z,38.19
2023-11-17T14:52:11.573Z,37.79
2023-11-17T14:54:38.160Z,38.51
2023-11-17T14:57:05.963Z,38.38
2023-11-17T14:59:32.717Z,38.79
2023-11-17T15:01:59.361Z,39.16
2023-11-17T15:04:26.946Z,38.90
2023-11-17T15:06:55.265Z,38.92
2023-11-17T15:09:22.137Z,39.54
2023-11-17T15:11:49.000Z,39.59
2023-11-17T15:14:21.381Z,39.67
2023-11-17T15:16:50.638Z,39.91
2023-11-17T15:19:20.322Z,40.70
2023-11-17T15:21:48.224Z,40.66
2023-11-17T15:24:21.941Z,40.98
2023-11-17T15:26:50.449Z,41.63
2023-11-17T15:29:17.190Z,40.42
2023-11-17T15:31:51.866Z,40.89
2023-11-17T15:34:21.449Z,40.79
2023-11-17T15:36:48.194Z,40.86
2023-11-17T15:39:17.253Z,41.14
2023-11-17T15:41:44.490Z,41.76
2023-11-17T15:44:12.640Z,42.41
2023-11-17T15:46:40.607Z,41.07
2023-11-17T15:49:10.983Z,41.67
2023-11-17T15:51:38.607Z,42.17
2023-11-17T15:54:05.466Z,42.57
2023-11-17T15:56:32.291Z,42.62
2023-11-17T15:59:02.039Z,43.56
2023-11-17T16:01:29.095Z,44.44
2023-11-17T16:03:56.037Z,43.82
2023-11-17T16:06:24.370Z,44.51
2023-11-17T16:08:50.956Z,44.45
2023-11-17T16:11:20.404Z,44.57
2023-11-17T16:13:49.238Z,44.54
2023-11-17T16:16:19.719Z,45.09
2023-11-17T16:18:50.380Z,45.43
2023-11-17T16:21:19.074Z,45.61
2023-11-17T16:23:46.957Z,45.68
2023-11-17T16:26:13.795Z,45.85
2023-11-17T16:28:41.265Z,46.07
2023-11-17T16:31:11.950Z,46.53
2023-11-17T16:33:39.727Z,46.92
2023-11-17T16:36:07.381Z,47.21
2023-11-17T16:38:35.119Z,47.37
2023-11-17T16:41:01.957Z,47.83
2023-11-17T16:43:28.975Z,48.03
2023-11-17T16:45:55.546Z,47.80
2023-11-17T16:48:22.962Z,47.72
2023-11-17T16:50:49.630Z,47.60
2023-11-17T16:53:19.039Z,48.17
2023-11-17T16:55:53.052Z,48.13
2023-11-17T16:58:20.251Z,48.62
2023-11-17T17:00:51.240Z,48.64
2023-11-17T17:03:22.483Z,49.71
2023-11-17T17:05:50.234Z,49.97
2023-11-17T17:08:17.306Z,50.63
2023-11-17T17:10:45.379Z,50.93
2023-11-17T17:13:13.635Z,50.99
2023-11-17T17:15:41.917Z,50.76
2023-11-17T17:18:11.149Z,50.31
2023-11-17T17:20:39.338Z,50.53
2023-11-17T17:23:08.318Z,49.75
2023-11-17T17:25:40.446Z,49.30
2023-11-17T17:28:11.706Z,49.39
2023-11-17T17:30:38.594Z,47.47
2023-11-17T17:33:05.329Z,49.60
2023-11-17T17:35:35.732Z,49.88
2023-11-17T17:38:03.292Z,50.18
2023-11-17T17:40:29.999Z,51.09
2023-11-17T17:42:57.171Z,51.75
2023-11-17T17:45:28.007Z,51.92
2023-11-17T17:47:57.801Z,51.83
2023-11-17T17:50:29.042Z,51.94
2023-11-17T17:52:58.555Z,53.07
2023-11-17T17:55:27.485Z,53.08
2023-11-17T17:57:54.897Z,52.93
2023-11-17T18:00:23.607Z,53.94
2023-11-17T18:02:58.381Z,54.13
2023-11-17T18:05:25.834Z,55.07
2023-11-17T18:07:52.882Z,55.55
2023-11-17T18:10:20.019Z,56.58
2023-11-17T18:12:47.379Z,57.78
2023-11-17T18:15:15.977Z,58.51
2023-11-17T18:17:43.467Z,59.06
2023-11-17T18:20:14.166Z,58.58
2023-11-17T18:22:49.079Z,59.72
2023-11-17T18:25:20.343Z,60.33
2023-11-17T18:27:49.312Z,61.72
2023-11-17T18:30:17.315Z,61.63
2023-11-17T18:32:44.767Z,61.52
2023-11-17T18:35:13.200Z,61.37
2023-11-17T18:37:50.682Z,61.27
2023-11-17T18:40:26.613Z,60.70
2023-11-17T18:42:54.444Z,59.76
2023-11-17T18:45:22.093Z,59.37
2023-11-17T18:47:49.901Z,59.29
2023-11-17T18:50:17.886Z,60.99
2023-11-17T18:52:44.494Z,62.89
2023-11-17T18:55:14.455Z,60.82
2023-11-17T18:57:41.645Z,62.17
2023-11-17T19:00:22.045Z,62.51
2023-11-17T19:02:53.298Z,63.70
2023-11-17T19:05:20.717Z,64.87
2023-11-17T19:07:49.534Z,66.74
2023-11-17T19:10:20.324Z,66.81
2023-11-17T19:12:48.723Z,66.78
2023-11-17T19:15:15.666Z,67.34
2023-11-17T19:17:42.380Z,68.43
2023-11-17T19:20:13.757Z,68.51
2023-11-17T19:22:41.207Z,66.27
2023-11-17T19:25:11.092Z,66.45
2023-11-17T19:27:40.925Z,65.32
2023-11-17T19:30:14.631Z,64.22
2023-11-17T19:32:45.905Z,61.22
2023-11-17T19:35:13.101Z,60.11
2023-11-17T19:37:43.232Z,60.01
2023-11-17T19:40:12.788Z,59.45
2023-11-17T19:42:40.412Z,59.15
2023-11-17T19:45:08.601Z,59.89
2023-11-17T19:47:36.284Z,60.45
2023-11-17T19:50:04.143Z,62.17
2023-11-17T19:52:31.942Z,63.71
2023-11-17T19:54:59.271Z,64.13
2023-11-17T19:57:27.705Z,64.36
2023-11-17T19:59:55.888Z,64.68
2023-11-17T20:02:22.490Z,64.58
2023-11-17T20:04:49.014Z,65.45
2023-11-17T20:07:16.628Z,65.59
2023-11-17T20:09:44.842Z,65.67
2023-11-17T20:12:11.933Z,64.96
2023-11-17T20:14:39.593Z,64.42
2023-11-17T20:17:06.521Z,64.58
2023-11-17T20:19:33.163Z,65.10
2023-11-17T20:22:00.230Z,66.34
2023-11-17T20:24:26.797Z,66.30
2023-11-17T20:26:53.293Z,66.19
2023-11-17T20:29:21.549Z,66.05
2023-11-17T20:31:49.457Z,66.38
2023-11-17T20:34:17.775Z,66.59
2023-11-17T20:36:44.400Z,66.42
2023-11-17T20:39:19.808Z,65.36
2023-11-17T20:41:48.300Z,64.81
2023-11-17T20:44:22.505Z,64.41
2023-11-17T20:46:50.377Z,65.22
2023-11-17T20:49:17.945Z,66.00
2023-11-17T20:51:47.067Z,66.64
2023-11-17T20:54:17.594Z,66.79
2023-11-17T20:56:44.780Z,67.82
2023-11-17T20:59:15.022Z,69.09
2023-11-17T21:01:42.575Z,69.55
2023-11-17T21:04:14.665Z,70.85
2023-11-17T21:06:43.145Z,71.86
2023-11-17T21:09:14.045Z,71.66
2023-11-17T21:11:46.585Z,71.63
2023-11-17T21:14:13.170Z,72.10
2023-11-17T21:16:40.157Z,73.07
2023-11-17T21:19:06.731Z,73.98
2023-11-17T21:21:34.301Z,74.26
2023-11-17T21:24:03.320Z,75.14
2023-11-17T21:26:30.102Z,73.30
2023-11-17T21:29:00.445Z,73.47
2023-11-17T21:31:34.605Z,73.20
2023-11-17T21:34:04.141Z,74.36
2023-11-17T21:36:30.795Z,75.74
2023-11-17T21:38:59.455Z,77.09
2023-11-17T21:41:29.971Z,79.25
2023-11-17T21:43:57.351Z,80.18
2023-11-17T21:46:24.007Z,81.17
2023-11-17T21:48:50.513Z,81.38
2023-11-17T21:51:16.967Z,82.36
2023-11-17T21:53:43.480Z,82.54
2023-11-17T21:56:09.939Z,81.93
2023-11-17T21:58:36.381Z,81.95
2023-11-17T22:01:05.607Z,82.18
2023-11-17T22:03:32.259Z,83.21
2023-11-17T22:05:58.734Z,84.19
2023-11-17T22:08:25.237Z,84.48
2023-11-17T22:10:51.708Z,85.85
2023-11-17T22:13:19.189Z,86.17
2023-11-17T22:15:45.746Z,86.90
2023-11-17T22:18:12.224Z,87.11
2023-11-17T22:20:38.686Z,86.49
2023-11-17T22:23:05.804Z,86.00
2023-11-17T22:25:32.328Z,86.73
2023-11-17T22:28:00.344Z,87.69
2023-11-17T22:30:27.457Z,87.74
2023-11-17T22:32:55.226Z,87.84
2023-11-17T22:35:23.434Z,88.57
2023-11-17T22:37:50.987Z,88.30
2023-11-17T22:40:18.775Z,88.19
2023-11-17T22:42:46.575Z,90.76
2023-11-17T22:45:17.239Z,90.81
2023-11-17T22:47:47.593Z,91.59
2023-11-17T22:50:17.281Z,92.31
2023-11-17T22:52:44.748Z,93.73
2023-11-17T22:55:11.471Z,93.82
2023-11-17T22:57:38.310Z,93.97
2023-11-17T23:00:16.460Z,96.35
2023-11-17T23:02:45.912Z,96.72
2023-11-17T23:05:12.959Z,97.08
2023-11-17T23:07:41.101Z,97.84
2023-11-17T23:10:10.799Z,97.36
2023-11-17T23:12:38.920Z,97.44
2023-11-17T23:15:08.555Z,96.74
2023-11-17T23:17:35.325Z,96.32
2023-11-17T23:20:02.098Z,97.53
2023-11-17T23:22:28.634Z,97.00
2023-11-17T23:24:55.200Z,97.39
2023-11-17T23:27:21.692Z,98.55
2023-11-17T23:29:48.259Z,99.63
2023-11-17T23:32:14.938Z,99.65
2023-11-17T23:34:41.691Z,100.00
2023-11-17T23:37:08.619Z,100.00
2023-11-17T23:39:35.095Z,100.00
2023-11-17T23:42:06.081Z,99.71
2023-11-17T23:44:32.663Z,99.54
2023-11-17T23:46:59.257Z,98.67
2023-11-17T23:49:27.015Z,99.71
2023-11-17T23:51:53.575Z,100.00
2023-11-17T23:54:20.036Z,100.00
2023-11-17T23:56:46.503Z,100.00
2023-11-17T23:59:13.012Z,100.00
